sensor_id;sensor_type;location;lat;lon;timestamp;P1;durP1;ratioP1;P2;durP2;ratioP2
13325;SDS011;6732;51.044;3.746;2023-04-03T00:01:02;11.37;;;10.23;;
13325;SDS011;6732;51.044;3.746;2023-04-03T00:03:28;12.07;;;9.60;;
13325;SDS011;6732;51.044;3.746;2023-04-03T00:05:54;11.03;;;9.90;;
13325;SDS011;6732;51.044;3.746;2023-04-03T00:08:20;10.17;;;8.93;;
13325;SDS011;6732;51.044;3.746;2023-04-03T00:10:47;10.03;;;8.77;;
13325;SDS011;6732;51.044;3.746;2023-04-03T00:13:13;8.73;;;7.80;;
13325;SDS011;6732;51.044;3.746;2023-04-03T00:15:40;8.37;;;7.57;;
13325;SDS011;6732;51.044;3.746;2023-04-03T00:18:06;8.97;;;7.93;;
13325;SDS011;6732;51.044;3.746;2023-04-03T00:20:33;8.13;;;7.30;;
13325;SDS011;6732;51.044;3.746;2023-04-03T00:22:59;8.97;;;7.60;;
13325;SDS011;6732;51.044;3.746;2023-04-03T00:25:26;10.43;;;7.43;;
13325;SDS011;6732;51.044;3.746;2023-04-03T00:27:52;9.13;;;7.80;;
13325;SDS011;6732;51.044;3.746;2023-04-03T00:30:19;11.33;;;7.80;;
13325;SDS011;6732;51.044;3.746;2023-04-03T00:32:47;8.60;;;7.70;;
13325;SDS011;6732;51.044;3.746;2023-04-03T00:35:14;8.37;;;7.57;;
13325;SDS011;6732;51.044;3.746;2023-04-03T00:37:41;8.30;;;6.83;;
13325;SDS011;6732;51.044;3.746;2023-04-03T00:40:08;8.13;;;7.27;;
13325;SDS011;6732;51.044;3.746;2023-04-03T00:42:39;8.20;;;7.30;;
13325;SDS011;6732;51.044;3.746;2023-04-03T00:47:50;8.00;;;7.20;;
13325;SDS011;6732;51.044;3.746;2023-04-03T00:50:16;8.27;;;7.43;;
13325;SDS011;6732;51.044;3.746;2023-04-03T00:52:43;7.67;;;6.90;;
13325;SDS011;6732;51.044;3.746;2023-04-03T00:55:11;7.63;;;6.83;;
13325;SDS011;6732;51.044;3.746;2023-04-03T00:57:39;8.07;;;7.23;;
13325;SDS011;6732;51.044;3.746;2023-04-03T01:00:06;8.70;;;6.87;;
13325;SDS011;6732;51.044;3.746;2023-04-03T01:02:35;9.97;;;7.27;;
13325;SDS011;6732;51.044;3.746;2023-04-03T01:05:02;8.77;;;7.40;;
13325;SDS011;6732;51.044;3.746;2023-04-03T01:07:29;7.73;;;6.93;;
13325;SDS011;6732;51.044;3.746;2023-04-03T01:09:57;7.53;;;6.73;;
13325;SDS011;6732;51.044;3.746;2023-04-03T01:12:26;8.30;;;7.00;;
13325;SDS011;6732;51.044;3.746;2023-04-03T01:15:01;9.40;;;6.97;;
13325;SDS011;6732;51.044;3.746;2023-04-03T01:22:44;8.03;;;7.17;;
13325;SDS011;6732;51.044;3.746;2023-04-03T01:25:15;8.63;;;6.77;;
13325;SDS011;6732;51.044;3.746;2023-04-03T01:27:41;7.67;;;6.70;;
13325;SDS011;6732;51.044;3.746;2023-04-03T01:30:07;7.20;;;6.50;;
13325;SDS011;6732;51.044;3.746;2023-04-03T01:32:34;7.27;;;6.40;;
13325;SDS011;6732;51.044;3.746;2023-04-03T01:35:00;7.47;;;6.67;;
13325;SDS011;6732;51.044;3.746;2023-04-03T01:37:26;7.03;;;6.37;;
13325;SDS011;6732;51.044;3.746;2023-04-03T01:39:51;8.13;;;6.27;;
13325;SDS011;6732;51.044;3.746;2023-04-03T01:42:17;7.27;;;6.03;;
13325;SDS011;6732;51.044;3.746;2023-04-03T01:44:43;7.57;;;6.63;;
13325;SDS011;6732;51.044;3.746;2023-04-03T01:47:11;6.70;;;6.10;;
13325;SDS011;6732;51.044;3.746;2023-04-03T01:49:37;7.60;;;6.37;;
13325;SDS011;6732;51.044;3.746;2023-04-03T01:52:03;8.90;;;6.53;;
13325;SDS011;6732;51.044;3.746;2023-04-03T01:54:29;8.87;;;7.07;;
13325;SDS011;6732;51.044;3.746;2023-04-03T01:56:54;8.13;;;6.47;;
13325;SDS011;6732;51.044;3.746;2023-04-03T01:59:20;7.53;;;6.73;;
13325;SDS011;6732;51.044;3.746;2023-04-03T02:01:46;7.00;;;6.30;;
13325;SDS011;6732;51.044;3.746;2023-04-03T02:04:12;8.00;;;6.53;;
13325;SDS011;6732;51.044;3.746;2023-04-03T02:06:38;7.20;;;6.50;;
13325;SDS011;6732;51.044;3.746;2023-04-03T02:09:04;7.33;;;6.57;;
13325;SDS011;6732;51.044;3.746;2023-04-03T02:11:30;7.80;;;6.90;;
13325;SDS011;6732;51.044;3.746;2023-04-03T02:13:56;8.13;;;6.60;;
13325;SDS011;6732;51.044;3.746;2023-04-03T02:16:22;9.27;;;6.57;;
13325;SDS011;6732;51.044;3.746;2023-04-03T02:18:48;7.63;;;6.63;;
13325;SDS011;6732;51.044;3.746;2023-04-03T02:21:15;8.57;;;7.03;;
13325;SDS011;6732;51.044;3.746;2023-04-03T02:23:41;7.20;;;6.30;;
13325;SDS011;6732;51.044;3.746;2023-04-03T02:26:08;7.33;;;6.63;;
13325;SDS011;6732;51.044;3.746;2023-04-03T02:28:39;7.10;;;6.40;;
13325;SDS011;6732;51.044;3.746;2023-04-03T02:31:06;7.17;;;6.37;;
13325;SDS011;6732;51.044;3.746;2023-04-03T02:33:33;6.97;;;6.07;;
13325;SDS011;6732;51.044;3.746;2023-04-03T02:36:01;7.77;;;6.07;;
13325;SDS011;6732;51.044;3.746;2023-04-03T02:38:27;9.17;;;6.57;;
13325;SDS011;6732;51.044;3.746;2023-04-03T02:40:53;7.80;;;7.10;;
13325;SDS011;6732;51.044;3.746;2023-04-03T02:43:24;7.90;;;6.63;;
13325;SDS011;6732;51.044;3.746;2023-04-03T02:45:50;7.93;;;6.50;;
13325;SDS011;6732;51.044;3.746;2023-04-03T02:48:16;9.60;;;6.97;;
13325;SDS011;6732;51.044;3.746;2023-04-03T02:50:42;7.40;;;6.30;;
13325;SDS011;6732;51.044;3.746;2023-04-03T02:53:07;7.80;;;6.47;;
13325;SDS011;6732;51.044;3.746;2023-04-03T02:55:33;9.57;;;6.67;;
13325;SDS011;6732;51.044;3.746;2023-04-03T02:57:59;7.47;;;6.67;;
13325;SDS011;6732;51.044;3.746;2023-04-03T03:00:25;8.00;;;6.93;;
13325;SDS011;6732;51.044;3.746;2023-04-03T03:02:51;10.03;;;7.53;;
13325;SDS011;6732;51.044;3.746;2023-04-03T03:05:17;8.37;;;7.20;;
13325;SDS011;6732;51.044;3.746;2023-04-03T03:07:43;7.70;;;6.90;;
13325;SDS011;6732;51.044;3.746;2023-04-03T03:10:09;7.93;;;6.80;;
13325;SDS011;6732;51.044;3.746;2023-04-03T03:12:35;8.83;;;6.13;;
13325;SDS011;6732;51.044;3.746;2023-04-03T03:15:00;7.03;;;6.23;;
13325;SDS011;6732;51.044;3.746;2023-04-03T03:17:26;7.67;;;6.43;;
13325;SDS011;6732;51.044;3.746;2023-04-03T03:19:52;7.90;;;6.47;;
13325;SDS011;6732;51.044;3.746;2023-04-03T03:22:18;7.23;;;6.53;;
13325;SDS011;6732;51.044;3.746;2023-04-03T03:24:44;9.33;;;6.93;;
13325;SDS011;6732;51.044;3.746;2023-04-03T03:27:10;7.47;;;6.10;;
13325;SDS011;6732;51.044;3.746;2023-04-03T03:29:37;8.37;;;6.53;;
13325;SDS011;6732;51.044;3.746;2023-04-03T03:32:03;7.07;;;6.30;;
13325;SDS011;6732;51.044;3.746;2023-04-03T03:34:29;7.03;;;6.17;;
13325;SDS011;6732;51.044;3.746;2023-04-03T03:36:55;7.90;;;6.40;;
13325;SDS011;6732;51.044;3.746;2023-04-03T03:39:21;8.03;;;6.37;;
13325;SDS011;6732;51.044;3.746;2023-04-03T03:41:47;7.63;;;6.20;;
13325;SDS011;6732;51.044;3.746;2023-04-03T03:44:14;7.90;;;6.60;;
13325;SDS011;6732;51.044;3.746;2023-04-03T03:46:40;7.83;;;7.07;;
13325;SDS011;6732;51.044;3.746;2023-04-03T03:49:06;7.90;;;6.23;;
13325;SDS011;6732;51.044;3.746;2023-04-03T03:51:32;8.40;;;6.13;;
13325;SDS011;6732;51.044;3.746;2023-04-03T03:53:58;6.80;;;6.10;;
13325;SDS011;6732;51.044;3.746;2023-04-03T03:56:24;7.17;;;6.47;;
13325;SDS011;6732;51.044;3.746;2023-04-03T03:58:50;8.30;;;6.37;;
13325;SDS011;6732;51.044;3.746;2023-04-03T04:01:16;7.17;;;6.47;;
13325;SDS011;6732;51.044;3.746;2023-04-03T04:03:42;6.90;;;6.20;;
13325;SDS011;6732;51.044;3.746;2023-04-03T04:06:08;7.27;;;6.53;;
13325;SDS011;6732;51.044;3.746;2023-04-03T04:08:34;6.93;;;6.30;;
13325;SDS011;6732;51.044;3.746;2023-04-03T04:11:00;6.80;;;6.03;;
13325;SDS011;6732;51.044;3.746;2023-04-03T04:13:25;7.73;;;6.20;;
13325;SDS011;6732;51.044;3.746;2023-04-03T04:15:51;8.83;;;6.10;;
13325;SDS011;6732;51.044;3.746;2023-04-03T04:18:17;6.63;;;6.03;;
13325;SDS011;6732;51.044;3.746;2023-04-03T04:20:45;6.40;;;5.80;;
13325;SDS011;6732;51.044;3.746;2023-04-03T04:23:11;6.80;;;6.10;;
13325;SDS011;6732;51.044;3.746;2023-04-03T04:25:37;6.90;;;6.27;;
13325;SDS011;6732;51.044;3.746;2023-04-03T04:28:03;7.37;;;6.67;;
13325;SDS011;6732;51.044;3.746;2023-04-03T04:30:29;6.60;;;5.90;;
13325;SDS011;6732;51.044;3.746;2023-04-03T04:32:55;8.90;;;6.80;;
13325;SDS011;6732;51.044;3.746;2023-04-03T04:35:21;6.70;;;6.00;;
13325;SDS011;6732;51.044;3.746;2023-04-03T04:37:47;7.13;;;6.43;;
13325;SDS011;6732;51.044;3.746;2023-04-03T04:40:13;8.20;;;7.03;;
13325;SDS011;6732;51.044;3.746;2023-04-03T04:42:39;7.53;;;6.53;;
13325;SDS011;6732;51.044;3.746;2023-04-03T04:45:05;7.23;;;6.50;;
13325;SDS011;6732;51.044;3.746;2023-04-03T04:47:32;8.23;;;7.13;;
13325;SDS011;6732;51.044;3.746;2023-04-03T04:49:58;7.70;;;6.73;;
13325;SDS011;6732;51.044;3.746;2023-04-03T04:52:24;9.20;;;6.83;;
13325;SDS011;6732;51.044;3.746;2023-04-03T04:54:50;8.33;;;7.13;;
13325;SDS011;6732;51.044;3.746;2023-04-03T04:57:16;10.03;;;7.30;;
13325;SDS011;6732;51.044;3.746;2023-04-03T04:59:42;12.33;;;7.10;;
13325;SDS011;6732;51.044;3.746;2023-04-03T05:02:08;9.17;;;7.27;;
13325;SDS011;6732;51.044;3.746;2023-04-03T05:04:34;8.43;;;7.43;;
13325;SDS011;6732;51.044;3.746;2023-04-03T05:07:00;7.87;;;7.10;;
13325;SDS011;6732;51.044;3.746;2023-04-03T05:09:26;8.87;;;7.27;;
13325;SDS011;6732;51.044;3.746;2023-04-03T05:11:52;7.93;;;7.13;;
13325;SDS011;6732;51.044;3.746;2023-04-03T05:14:18;8.10;;;6.83;;
13325;SDS011;6732;51.044;3.746;2023-04-03T05:16:44;8.33;;;6.80;;
13325;SDS011;6732;51.044;3.746;2023-04-03T05:19:09;7.47;;;6.73;;
13325;SDS011;6732;51.044;3.746;2023-04-03T05:21:35;7.97;;;7.00;;
13325;SDS011;6732;51.044;3.746;2023-04-03T05:24:01;8.57;;;6.60;;
13325;SDS011;6732;51.044;3.746;2023-04-03T05:26:31;7.93;;;6.97;;
13325;SDS011;6732;51.044;3.746;2023-04-03T05:28:57;8.13;;;7.03;;
13325;SDS011;6732;51.044;3.746;2023-04-03T05:31:23;7.23;;;6.50;;
13325;SDS011;6732;51.044;3.746;2023-04-03T05:33:49;6.90;;;6.27;;
13325;SDS011;6732;51.044;3.746;2023-04-03T05:36:15;9.50;;;6.87;;
13325;SDS011;6732;51.044;3.746;2023-04-03T05:38:41;8.67;;;7.27;;
13325;SDS011;6732;51.044;3.746;2023-04-03T05:41:07;7.93;;;7.13;;
13325;SDS011;6732;51.044;3.746;2023-04-03T05:43:33;7.90;;;7.20;;
13325;SDS011;6732;51.044;3.746;2023-04-03T05:45:59;8.10;;;7.23;;
13325;SDS011;6732;51.044;3.746;2023-04-03T05:48:25;8.37;;;7.50;;
13325;SDS011;6732;51.044;3.746;2023-04-03T05:50:51;8.00;;;7.30;;
13325;SDS011;6732;51.044;3.746;2023-04-03T05:53:19;8.87;;;7.73;;
13325;SDS011;6732;51.044;3.746;2023-04-03T05:55:48;8.20;;;7.40;;
13325;SDS011;6732;51.044;3.746;2023-04-03T05:58:14;9.30;;;8.03;;
13325;SDS011;6732;51.044;3.746;2023-04-03T06:00:40;9.13;;;7.87;;
13325;SDS011;6732;51.044;3.746;2023-04-03T06:03:06;8.87;;;7.97;;
13325;SDS011;6732;51.044;3.746;2023-04-03T06:05:32;8.60;;;7.70;;
13325;SDS011;6732;51.044;3.746;2023-04-03T06:07:58;9.40;;;7.90;;
13325;SDS011;6732;51.044;3.746;2023-04-03T06:10:24;8.73;;;7.93;;
13325;SDS011;6732;51.044;3.746;2023-04-03T06:12:50;9.23;;;8.00;;
13325;SDS011;6732;51.044;3.746;2023-04-03T06:15:16;9.50;;;8.27;;
13325;SDS011;6732;51.044;3.746;2023-04-03T06:17:43;9.17;;;8.07;;
13325;SDS011;6732;51.044;3.746;2023-04-03T06:20:09;9.57;;;8.57;;
13325;SDS011;6732;51.044;3.746;2023-04-03T06:22:35;14.90;;;8.37;;
13325;SDS011;6732;51.044;3.746;2023-04-03T06:25:01;13.30;;;8.87;;
13325;SDS011;6732;51.044;3.746;2023-04-03T06:27:27;11.43;;;9.43;;
13325;SDS011;6732;51.044;3.746;2023-04-03T06:29:53;9.80;;;7.70;;
13325;SDS011;6732;51.044;3.746;2023-04-03T06:32:19;9.03;;;8.03;;
13325;SDS011;6732;51.044;3.746;2023-04-03T06:34:46;10.27;;;8.20;;
13325;SDS011;6732;51.044;3.746;2023-04-03T06:37:18;11.37;;;8.30;;
13325;SDS011;6732;51.044;3.746;2023-04-03T06:39:46;11.23;;;8.00;;
13325;SDS011;6732;51.044;3.746;2023-04-03T06:42:12;11.23;;;8.63;;
13325;SDS011;6732;51.044;3.746;2023-04-03T06:44:38;10.93;;;8.20;;
13325;SDS011;6732;51.044;3.746;2023-04-03T06:47:04;10.90;;;8.93;;
13325;SDS011;6732;51.044;3.746;2023-04-03T06:49:30;11.53;;;8.60;;
13325;SDS011;6732;51.044;3.746;2023-04-03T06:51:57;10.13;;;8.67;;
13325;SDS011;6732;51.044;3.746;2023-04-03T06:54:23;11.13;;;8.97;;
13325;SDS011;6732;51.044;3.746;2023-04-03T06:56:49;11.73;;;9.63;;
13325;SDS011;6732;51.044;3.746;2023-04-03T06:59:15;11.47;;;8.77;;
13325;SDS011;6732;51.044;3.746;2023-04-03T07:01:42;11.43;;;8.40;;
13325;SDS011;6732;51.044;3.746;2023-04-03T07:04:08;9.60;;;8.60;;
13325;SDS011;6732;51.044;3.746;2023-04-03T07:06:34;12.03;;;8.93;;
13325;SDS011;6732;51.044;3.746;2023-04-03T07:09:00;10.20;;;7.90;;
13325;SDS011;6732;51.044;3.746;2023-04-03T07:11:26;9.10;;;8.20;;
13325;SDS011;6732;51.044;3.746;2023-04-03T07:13:53;8.83;;;7.50;;
13325;SDS011;6732;51.044;3.746;2023-04-03T07:16:19;10.00;;;7.67;;
13325;SDS011;6732;51.044;3.746;2023-04-03T07:18:45;10.33;;;8.17;;
13325;SDS011;6732;51.044;3.746;2023-04-03T07:21:11;10.53;;;7.77;;
13325;SDS011;6732;51.044;3.746;2023-04-03T07:23:38;8.30;;;7.37;;
13325;SDS011;6732;51.044;3.746;2023-04-03T07:26:05;10.40;;;7.63;;
13325;SDS011;6732;51.044;3.746;2023-04-03T07:28:31;9.40;;;7.43;;
13325;SDS011;6732;51.044;3.746;2023-04-03T07:31:02;8.30;;;7.60;;
13325;SDS011;6732;51.044;3.746;2023-04-03T07:33:31;8.20;;;6.93;;
13325;SDS011;6732;51.044;3.746;2023-04-03T07:35:58;8.10;;;7.30;;
13325;SDS011;6732;51.044;3.746;2023-04-03T07:38:24;9.10;;;7.20;;
13325;SDS011;6732;51.044;3.746;2023-04-03T07:40:51;9.90;;;8.00;;
13325;SDS011;6732;51.044;3.746;2023-04-03T07:43:18;8.90;;;7.60;;
13325;SDS011;6732;51.044;3.746;2023-04-03T07:45:45;9.20;;;7.73;;
13325;SDS011;6732;51.044;3.746;2023-04-03T07:48:15;9.33;;;7.73;;
13325;SDS011;6732;51.044;3.746;2023-04-03T07:50:45;8.13;;;6.90;;
13325;SDS011;6732;51.044;3.746;2023-04-03T07:53:11;7.70;;;7.00;;
13325;SDS011;6732;51.044;3.746;2023-04-03T07:55:38;7.80;;;7.00;;
13325;SDS011;6732;51.044;3.746;2023-04-03T07:58:12;9.07;;;7.80;;
13325;SDS011;6732;51.044;3.746;2023-04-03T08:00:40;8.83;;;7.90;;
13325;SDS011;6732;51.044;3.746;2023-04-03T08:03:07;11.97;;;7.70;;
13325;SDS011;6732;51.044;3.746;2023-04-03T08:05:39;10.13;;;7.43;;
13325;SDS011;6732;51.044;3.746;2023-04-03T08:08:06;9.20;;;8.30;;
13325;SDS011;6732;51.044;3.746;2023-04-03T08:10:33;9.07;;;7.87;;
13325;SDS011;6732;51.044;3.746;2023-04-03T08:13:00;10.93;;;8.30;;
13325;SDS011;6732;51.044;3.746;2023-04-03T08:15:26;8.70;;;7.73;;
13325;SDS011;6732;51.044;3.746;2023-04-03T08:17:53;9.50;;;7.93;;
13325;SDS011;6732;51.044;3.746;2023-04-03T08:20:20;9.77;;;7.57;;
13325;SDS011;6732;51.044;3.746;2023-04-03T08:22:46;9.77;;;7.73;;
13325;SDS011;6732;51.044;3.746;2023-04-03T08:25:12;9.43;;;7.93;;
13325;SDS011;6732;51.044;3.746;2023-04-03T08:27:38;10.17;;;7.30;;
13325;SDS011;6732;51.044;3.746;2023-04-03T08:30:04;10.60;;;7.40;;
13325;SDS011;6732;51.044;3.746;2023-04-03T08:32:33;8.17;;;7.13;;
13325;SDS011;6732;51.044;3.746;2023-04-03T08:34:59;9.27;;;7.57;;
13325;SDS011;6732;51.044;3.746;2023-04-03T08:37:26;9.43;;;7.13;;
13325;SDS011;6732;51.044;3.746;2023-04-03T08:39:52;10.03;;;6.60;;
13325;SDS011;6732;51.044;3.746;2023-04-03T08:47:47;5.47;;;4.10;;
13325;SDS011;6732;51.044;3.746;2023-04-03T08:50:26;10.40;;;4.57;;
13325;SDS011;6732;51.044;3.746;2023-04-03T08:52:59;5.17;;;4.20;;
13325;SDS011;6732;51.044;3.746;2023-04-03T08:58:16;5.03;;;3.73;;
13325;SDS011;6732;51.044;3.746;2023-04-03T09:00:47;3.60;;;3.30;;
13325;SDS011;6732;51.044;3.746;2023-04-03T09:03:31;5.33;;;3.40;;
13325;SDS011;6732;51.044;3.746;2023-04-03T09:06:11;5.50;;;3.67;;
13325;SDS011;6732;51.044;3.746;2023-04-03T09:08:51;5.27;;;3.57;;
13325;SDS011;6732;51.044;3.746;2023-04-03T09:11:33;4.50;;;3.17;;
13325;SDS011;6732;51.044;3.746;2023-04-03T09:19:54;7.27;;;3.97;;
13325;SDS011;6732;51.044;3.746;2023-04-03T09:22:28;7.43;;;3.80;;
13325;SDS011;6732;51.044;3.746;2023-04-03T09:25:00;3.77;;;2.87;;
13325;SDS011;6732;51.044;3.746;2023-04-03T09:27:31;5.27;;;3.60;;
13325;SDS011;6732;51.044;3.746;2023-04-03T09:29:57;6.50;;;3.40;;
13325;SDS011;6732;51.044;3.746;2023-04-03T09:32:27;6.30;;;3.47;;
13325;SDS011;6732;51.044;3.746;2023-04-03T09:35:01;4.93;;;3.17;;
13325;SDS011;6732;51.044;3.746;2023-04-03T09:37:40;4.47;;;2.70;;
13325;SDS011;6732;51.044;3.746;2023-04-03T09:40:28;6.20;;;2.53;;
13325;SDS011;6732;51.044;3.746;2023-04-03T09:43:00;4.50;;;2.57;;
13325;SDS011;6732;51.044;3.746;2023-04-03T09:48:07;6.50;;;2.57;;
13325;SDS011;6732;51.044;3.746;2023-04-03T09:50:38;4.40;;;2.17;;
13325;SDS011;6732;51.044;3.746;2023-04-03T09:58:50;4.30;;;2.63;;
13325;SDS011;6732;51.044;3.746;2023-04-03T10:04:06;4.83;;;3.10;;
13325;SDS011;6732;51.044;3.746;2023-04-03T10:06:36;6.80;;;2.43;;
13325;SDS011;6732;51.044;3.746;2023-04-03T10:09:13;4.90;;;2.30;;
13325;SDS011;6732;51.044;3.746;2023-04-03T10:12:01;3.57;;;2.47;;
13325;SDS011;6732;51.044;3.746;2023-04-03T10:14:32;2.83;;;2.37;;
13325;SDS011;6732;51.044;3.746;2023-04-03T10:19:42;3.80;;;2.20;;
13325;SDS011;6732;51.044;3.746;2023-04-03T10:28:05;3.07;;;1.70;;
13325;SDS011;6732;51.044;3.746;2023-04-03T10:33:36;4.07;;;1.90;;
13325;SDS011;6732;51.044;3.746;2023-04-03T10:39:13;4.00;;;2.23;;
13325;SDS011;6732;51.044;3.746;2023-04-03T10:41:48;4.00;;;1.90;;
13325;SDS011;6732;51.044;3.746;2023-04-03T10:52:28;3.00;;;2.10;;
13325;SDS011;6732;51.044;3.746;2023-04-03T10:55:06;4.53;;;2.33;;
13325;SDS011;6732;51.044;3.746;2023-04-03T10:57:49;3.80;;;1.97;;
13325;SDS011;6732;51.044;3.746;2023-04-03T11:00:19;4.50;;;1.70;;
13325;SDS011;6732;51.044;3.746;2023-04-03T11:03:00;4.17;;;1.70;;
13325;SDS011;6732;51.044;3.746;2023-04-03T11:08:07;4.60;;;2.03;;
13325;SDS011;6732;51.044;3.746;2023-04-03T11:10:49;3.60;;;1.80;;
13325;SDS011;6732;51.044;3.746;2023-04-03T11:13:21;2.27;;;1.60;;
13325;SDS011;6732;51.044;3.746;2023-04-03T11:16:04;3.13;;;1.30;;
13325;SDS011;6732;51.044;3.746;2023-04-03T11:18:45;2.23;;;1.50;;
13325;SDS011;6732;51.044;3.746;2023-04-03T11:21:22;3.73;;;1.70;;
13325;SDS011;6732;51.044;3.746;2023-04-03T11:24:15;3.37;;;1.87;;
13325;SDS011;6732;51.044;3.746;2023-04-03T11:26:46;3.47;;;1.70;;
13325;SDS011;6732;51.044;3.746;2023-04-03T11:29:15;2.53;;;1.77;;
13325;SDS011;6732;51.044;3.746;2023-04-03T11:34:45;3.43;;;1.50;;
13325;SDS011;6732;51.044;3.746;2023-04-03T11:40:07;3.20;;;1.47;;
13325;SDS011;6732;51.044;3.746;2023-04-03T11:47:59;4.10;;;1.70;;
13325;SDS011;6732;51.044;3.746;2023-04-03T11:53:10;2.07;;;1.33;;
13325;SDS011;6732;51.044;3.746;2023-04-03T11:55:57;2.07;;;1.33;;
13325;SDS011;6732;51.044;3.746;2023-04-03T11:58:26;3.80;;;1.17;;
13325;SDS011;6732;51.044;3.746;2023-04-03T12:01:04;2.33;;;1.00;;
13325;SDS011;6732;51.044;3.746;2023-04-03T12:04:18;2.13;;;1.17;;
13325;SDS011;6732;51.044;3.746;2023-04-03T12:12:00;3.60;;;1.30;;
13325;SDS011;6732;51.044;3.746;2023-04-03T12:14:46;3.30;;;1.30;;
13325;SDS011;6732;51.044;3.746;2023-04-03T12:17:25;1.63;;;1.20;;
13325;SDS011;6732;51.044;3.746;2023-04-03T12:19:52;2.35;;;1.42;;
13325;SDS011;6732;51.044;3.746;2023-04-03T12:22:19;1.80;;;1.20;;
13325;SDS011;6732;51.044;3.746;2023-04-03T12:24:50;4.17;;;1.40;;
13325;SDS011;6732;51.044;3.746;2023-04-03T12:27:20;3.20;;;1.30;;
13325;SDS011;6732;51.044;3.746;2023-04-03T12:46:39;2.97;;;1.30;;
13325;SDS011;6732;51.044;3.746;2023-04-03T12:49:52;2.20;;;1.17;;
13325;SDS011;6732;51.044;3.746;2023-04-03T12:52:06;3.93;;;1.80;;
13325;SDS011;6732;51.044;3.746;2023-04-03T12:54:45;3.00;;;1.40;;
13325;SDS011;6732;51.044;3.746;2023-04-03T12:59:46;2.63;;;1.30;;
13325;SDS011;6732;51.044;3.746;2023-04-03T13:02:23;2.13;;;1.37;;
13325;SDS011;6732;51.044;3.746;2023-04-03T13:05:17;2.73;;;1.40;;
13325;SDS011;6732;51.044;3.746;2023-04-03T13:07:45;2.10;;;1.10;;
13325;SDS011;6732;51.044;3.746;2023-04-03T13:10:16;1.70;;;1.23;;
13325;SDS011;6732;51.044;3.746;2023-04-03T13:12:48;2.23;;;1.40;;
13325;SDS011;6732;51.044;3.746;2023-04-03T13:15:27;1.07;;;1.00;;
13325;SDS011;6732;51.044;3.746;2023-04-03T13:18:20;2.33;;;1.40;;
13325;SDS011;6732;51.044;3.746;2023-04-03T13:20:52;3.53;;;1.57;;
13325;SDS011;6732;51.044;3.746;2023-04-03T13:23:19;2.23;;;1.20;;
13325;SDS011;6732;51.044;3.746;2023-04-03T13:25:49;2.50;;;1.37;;
13325;SDS011;6732;51.044;3.746;2023-04-03T13:28:20;4.10;;;2.40;;
13325;SDS011;6732;51.044;3.746;2023-04-03T13:30:55;1.40;;;1.30;;
13325;SDS011;6732;51.044;3.746;2023-04-03T13:33:32;2.17;;;1.10;;
13325;SDS011;6732;51.044;3.746;2023-04-03T13:38:37;1.97;;;1.30;;
13325;SDS011;6732;51.044;3.746;2023-04-03T13:41:05;1.30;;;1.07;;
13325;SDS011;6732;51.044;3.746;2023-04-03T13:43:48;3.63;;;1.30;;
13325;SDS011;6732;51.044;3.746;2023-04-03T13:48:42;1.33;;;1.03;;
13325;SDS011;6732;51.044;3.746;2023-04-03T13:53:41;3.07;;;1.10;;
13325;SDS011;6732;51.044;3.746;2023-04-03T13:56:16;1.73;;;1.03;;
13325;SDS011;6732;51.044;3.746;2023-04-03T13:58:56;2.07;;;1.27;;
13325;SDS011;6732;51.044;3.746;2023-04-03T14:01:24;2.37;;;1.33;;
13325;SDS011;6732;51.044;3.746;2023-04-03T14:03:53;1.43;;;1.33;;
13325;SDS011;6732;51.044;3.746;2023-04-03T14:06:22;1.50;;;0.93;;
13325;SDS011;6732;51.044;3.746;2023-04-03T14:08:48;1.73;;;1.00;;
13325;SDS011;6732;51.044;3.746;2023-04-03T14:11:16;2.07;;;1.10;;
13325;SDS011;6732;51.044;3.746;2023-04-03T14:13:46;1.20;;;1.10;;
13325;SDS011;6732;51.044;3.746;2023-04-03T14:16:14;1.00;;;0.90;;
13325;SDS011;6732;51.044;3.746;2023-04-03T14:18:42;1.37;;;1.27;;
13325;SDS011;6732;51.044;3.746;2023-04-03T14:21:11;2.37;;;1.07;;
13325;SDS011;6732;51.044;3.746;2023-04-03T14:23:38;1.27;;;1.07;;
13325;SDS011;6732;51.044;3.746;2023-04-03T14:26:08;1.17;;;1.07;;
13325;SDS011;6732;51.044;3.746;2023-04-03T14:28:37;2.10;;;1.27;;
13325;SDS011;6732;51.044;3.746;2023-04-03T14:31:05;1.30;;;1.10;;
13325;SDS011;6732;51.044;3.746;2023-04-03T14:33:32;1.93;;;1.77;;
13325;SDS011;6732;51.044;3.746;2023-04-03T14:36:00;1.67;;;1.23;;
13325;SDS011;6732;51.044;3.746;2023-04-03T14:38:28;3.10;;;1.60;;
13325;SDS011;6732;51.044;3.746;2023-04-03T14:40:56;3.93;;;2.00;;
13325;SDS011;6732;51.044;3.746;2023-04-03T14:43:22;5.30;;;3.30;;
13325;SDS011;6732;51.044;3.746;2023-04-03T14:45:49;1.87;;;1.30;;
13325;SDS011;6732;51.044;3.746;2023-04-03T14:48:17;1.57;;;1.47;;
13325;SDS011;6732;51.044;3.746;2023-04-03T14:50:45;1.80;;;1.37;;
13325;SDS011;6732;51.044;3.746;2023-04-03T14:53:12;1.73;;;1.10;;
13325;SDS011;6732;51.044;3.746;2023-04-03T14:55:46;2.03;;;1.00;;
13325;SDS011;6732;51.044;3.746;2023-04-03T14:58:13;2.80;;;1.20;;
13325;SDS011;6732;51.044;3.746;2023-04-03T15:00:41;2.70;;;1.17;;
13325;SDS011;6732;51.044;3.746;2023-04-03T15:03:17;2.03;;;1.10;;
13325;SDS011;6732;51.044;3.746;2023-04-03T15:05:45;2.80;;;1.20;;
13325;SDS011;6732;51.044;3.746;2023-04-03T15:08:30;1.80;;;1.20;;
13325;SDS011;6732;51.044;3.746;2023-04-03T15:10:56;3.50;;;1.50;;
13325;SDS011;6732;51.044;3.746;2023-04-03T15:13:23;2.20;;;1.30;;
13325;SDS011;6732;51.044;3.746;2023-04-03T15:15:50;3.70;;;1.50;;
13325;SDS011;6732;51.044;3.746;2023-04-03T15:18:18;1.33;;;1.20;;
13325;SDS011;6732;51.044;3.746;2023-04-03T15:20:47;1.93;;;1.30;;
13325;SDS011;6732;51.044;3.746;2023-04-03T15:23:14;1.20;;;1.10;;
13325;SDS011;6732;51.044;3.746;2023-04-03T15:25:44;1.90;;;1.10;;
13325;SDS011;6732;51.044;3.746;2023-04-03T15:28:18;0.90;;;0.80;;
13325;SDS011;6732;51.044;3.746;2023-04-03T15:30:47;1.63;;;1.20;;
13325;SDS011;6732;51.044;3.746;2023-04-03T15:33:14;2.00;;;1.20;;
13325;SDS011;6732;51.044;3.746;2023-04-03T15:35:41;1.90;;;1.10;;
13325;SDS011;6732;51.044;3.746;2023-04-03T15:38:07;1.63;;;1.23;;
13325;SDS011;6732;51.044;3.746;2023-04-03T15:40:34;3.13;;;1.20;;
13325;SDS011;6732;51.044;3.746;2023-04-03T15:43:00;1.60;;;1.20;;
13325;SDS011;6732;51.044;3.746;2023-04-03T15:45:28;3.53;;;1.00;;
13325;SDS011;6732;51.044;3.746;2023-04-03T15:47:55;2.47;;;1.03;;
13325;SDS011;6732;51.044;3.746;2023-04-03T15:50:22;3.07;;;1.13;;
13325;SDS011;6732;51.044;3.746;2023-04-03T15:52:52;2.60;;;1.37;;
13325;SDS011;6732;51.044;3.746;2023-04-03T15:55:26;2.03;;;1.23;;
13325;SDS011;6732;51.044;3.746;2023-04-03T15:57:53;2.40;;;1.20;;
13325;SDS011;6732;51.044;3.746;2023-04-03T16:00:19;2.43;;;1.33;;
13325;SDS011;6732;51.044;3.746;2023-04-03T16:02:46;2.93;;;1.70;;
13325;SDS011;6732;51.044;3.746;2023-04-03T16:05:15;1.77;;;1.30;;
13325;SDS011;6732;51.044;3.746;2023-04-03T16:07:42;3.13;;;1.37;;
13325;SDS011;6732;51.044;3.746;2023-04-03T16:10:09;1.47;;;1.03;;
13325;SDS011;6732;51.044;3.746;2023-04-03T16:12:36;2.17;;;1.80;;
13325;SDS011;6732;51.044;3.746;2023-04-03T16:15:03;3.00;;;1.50;;
13325;SDS011;6732;51.044;3.746;2023-04-03T16:17:30;1.70;;;1.20;;
13325;SDS011;6732;51.044;3.746;2023-04-03T16:19:58;1.87;;;0.80;;
13325;SDS011;6732;51.044;3.746;2023-04-03T16:22:25;1.60;;;1.00;;
13325;SDS011;6732;51.044;3.746;2023-04-03T16:24:53;3.17;;;1.30;;
13325;SDS011;6732;51.044;3.746;2023-04-03T16:27:19;1.30;;;1.13;;
13325;SDS011;6732;51.044;3.746;2023-04-03T16:29:46;1.80;;;1.37;;
13325;SDS011;6732;51.044;3.746;2023-04-03T16:32:12;2.00;;;1.20;;
13325;SDS011;6732;51.044;3.746;2023-04-03T16:34:39;1.20;;;1.00;;
13325;SDS011;6732;51.044;3.746;2023-04-03T16:37:05;1.27;;;1.10;;
13325;SDS011;6732;51.044;3.746;2023-04-03T16:39:34;2.97;;;1.23;;
13325;SDS011;6732;51.044;3.746;2023-04-03T16:42:00;1.97;;;1.30;;
13325;SDS011;6732;51.044;3.746;2023-04-03T16:44:27;2.40;;;1.33;;
13325;SDS011;6732;51.044;3.746;2023-04-03T16:46:52;4.83;;;1.40;;
13325;SDS011;6732;51.044;3.746;2023-04-03T16:49:18;2.67;;;1.33;;
13325;SDS011;6732;51.044;3.746;2023-04-03T16:51:45;2.13;;;1.23;;
13325;SDS011;6732;51.044;3.746;2023-04-03T16:54:11;2.47;;;1.57;;